Time;durP1;ratioP1;P1;durP2;ratioP2;P2;SDS_P1;SDS_P2;PMS_P1;PMS_P2;Temp;Humidity;BMP_temperature;BMP_pressure;BME280_temperature;BME280_humidity;BME280_pressure;Samples;Min_cycle;Max_cycle;Signal;HPM_P1;HPM_P2
2023/06/29 00:00:39;;;;;;;4.72;2.40;;;;;;;17.39;100.00;100539.72;6149213;23;20013;-90
2023/06/29 00:03:04;;;;;;;7.88;3.17;;;;;;;17.45;100.00;100541.78;6251992;22;20009;-89
2023/06/29 00:05:30;;;;;;;5.93;2.85;;;;;;;17.45;100.00;100536.56;6149901;23;19998;-89
2023/06/29 00:07:58;;;;;;;4.65;2.40;;;;;;;17.41;100.00;100537.81;6150033;23;20406;-90
2023/06/29 00:10:28;;;;;;;8.85;2.95;;;;;;;17.51;100.00;100543.88;6149368;23;20002;-89
2023/06/29 00:12:54;;;;;;;5.97;3.10;;;;;;;17.43;100.00;100541.06;6251898;22;20013;-91
2023/06/29 00:15:20;;;;;;;3.17;1.30;;;;;;;17.37;100.00;100531.19;6252987;22;20164;-91
2023/06/29 00:17:47;;;;;;;1.55;1.02;;;;;;;17.27;100.00;100532.91;6150561;23;20029;-90
2023/06/29 00:20:13;;;;;;;2.13;1.00;;;;;;;17.15;100.00;100526.13;6154187;23;20088;-90
2023/06/29 00:22:40;;;;;;;3.78;0.75;;;;;;;17.14;100.00;100529.66;6157943;23;20077;-90
2023/06/29 00:25:09;;;;;;;7.43;1.20;;;;;;;17.05;100.00;100531.28;6154734;23;20005;-90
2023/06/29 00:27:35;;;;;;;2.05;0.98;;;;;;;16.96;100.00;100538.06;6257808;22;20033;-90
2023/06/29 00:30:00;;;;;;;1.20;0.90;;;;;;;16.92;100.00;100541.06;6155661;23;20045;-89
2023/06/29 00:32:25;;;;;;;3.72;0.82;;;;;;;16.93;100.00;100538.31;6156789;23;20435;-90
2023/06/29 00:34:51;;;;;;;1.00;0.82;;;;;;;16.84;100.00;100539.91;6257452;22;20010;-90
2023/06/29 00:37:16;;;;;;;0.80;0.55;;;;;;;16.82;100.00;100540.97;6154530;23;20006;-89
2023/06/29 00:39:42;;;;;;;1.08;0.90;;;;;;;16.60;100.00;100542.69;6258393;22;20006;-90
2023/06/29 00:42:08;;;;;;;2.20;0.73;;;;;;;16.77;100.00;100543.09;6260973;22;20002;-90
2023/06/29 00:44:33;;;;;;;1.35;0.70;;;;;;;16.65;100.00;100540.56;6160137;23;20037;-89
2023/06/29 00:46:59;;;;;;;1.08;0.60;;;;;;;16.62;100.00;100530.38;6264653;22;20446;-90
2023/06/29 00:49:25;;;;;;;2.10;0.80;;;;;;;16.63;100.00;100536.41;6156740;23;20424;-90
2023/06/29 00:51:53;;;;;;;0.93;0.70;;;;;;;16.77;100.00;100536.09;6261184;22;20016;-90
2023/06/29 00:54:18;;;;;;;3.33;1.33;;;;;;;16.73;100.00;100537.34;6154478;23;20305;-89
2023/06/29 00:56:45;;;;;;;0.77;0.60;;;;;;;16.66;100.00;100547.41;6156714;23;20012;-90
2023/06/29 00:59:11;;;;;;;2.55;0.70;;;;;;;16.63;100.00;100539.88;6261051;22;19997;-90
2023/06/29 01:01:39;;;;;;;3.60;0.93;;;;;;;16.63;100.00;100552.03;6156029;23;20008;-89
2023/06/29 01:04:04;;;;;;;4.47;1.00;;;;;;;16.52;100.00;100546.88;6158355;23;20006;-90
2023/06/29 01:06:33;;;;;;;1.67;0.80;;;;;;;16.49;100.00;100553.19;6154788;23;20012;-91
2023/06/29 01:09:05;;;;;;;4.03;1.23;;;;;;;16.50;100.00;100560.03;6150991;22;20013;-90
2023/06/29 01:11:36;;;;;;;3.13;1.10;;;;;;;16.33;100.00;100555.34;6253713;22;20009;-89
2023/06/29 01:14:05;;;;;;;4.25;1.00;;;;;;;16.27;100.00;100556.66;6253393;22;20424;-90
2023/06/29 01:16:33;;;;;;;2.25;1.35;;;;;;;16.25;100.00;100564.59;6150577;23;20008;-90
2023/06/29 01:19:04;;;;;;;3.58;1.33;;;;;;;16.07;100.00;100560.84;6150116;23;20029;-89
2023/06/29 01:21:35;;;;;;;3.03;1.13;;;;;;;15.86;100.00;100565.13;6254084;22;20014;-90
2023/06/29 01:24:01;;;;;;;1.85;1.20;;;;;;;15.97;100.00;100571.16;6151420;23;20077;-89
2023/06/29 01:26:27;;;;;;;0.95;0.65;;;;;;;15.93;100.00;100558.50;6253575;22;20005;-91
2023/06/29 01:28:52;;;;;;;2.45;0.93;;;;;;;15.84;100.00;100566.06;6150130;23;20025;-90
2023/06/29 01:31:18;;;;;;;2.45;1.00;;;;;;;15.91;100.00;100570.81;6151421;23;20051;-89
2023/06/29 01:33:44;;;;;;;1.88;0.90;;;;;;;15.77;100.00;100569.25;6151281;23;20331;-89
2023/06/29 01:36:44;;;;;;;1.25;0.77;;;;;;;15.71;100.00;100565.38;6151297;23;20005;-89
2023/06/29 01:39:27;;;;;;;2.47;0.75;;;;;;;15.61;100.00;100560.00;6154712;22;20172;-89
2023/06/29 01:41:54;;;;;;;5.20;1.20;;;;;;;15.48;100.00;100561.88;6149590;23;20025;-90
2023/06/29 01:44:19;;;;;;;2.05;0.93;;;;;;;15.45;100.00;100559.50;6150506;23;20065;-90
2023/06/29 01:46:47;;;;;;;2.10;1.33;;;;;;;15.47;100.00;100564.59;6253136;22;20317;-90
2023/06/29 01:49:13;;;;;;;3.33;1.35;;;;;;;15.41;100.00;100563.28;6149171;23;20082;-91
2023/06/29 01:51:38;;;;;;;2.42;1.02;;;;;;;15.40;100.00;100562.47;6148524;23;20420;-91
2023/06/29 01:54:04;;;;;;;7.45;1.10;;;;;;;15.30;100.00;100564.09;6149368;23;20084;-91
2023/06/29 01:56:30;;;;;;;2.00;1.10;;;;;;;15.18;100.00;100560.66;6150336;23;20432;-91
2023/06/29 01:58:55;;;;;;;1.73;1.45;;;;;;;15.21;100.00;100554.38;6150014;23;20008;-91
2023/06/29 02:01:21;;;;;;;1.48;1.08;;;;;;;15.08;100.00;100554.47;6252918;22;20012;-91
2023/06/29 02:03:46;;;;;;;1.27;0.98;;;;;;;15.10;100.00;100551.78;6254008;22;20005;-90
2023/06/29 02:06:12;;;;;;;6.63;1.20;;;;;;;15.14;100.00;100555.78;6150653;22;20024;-90
2023/06/29 02:08:38;;;;;;;3.40;0.77;;;;;;;15.04;100.00;100558.25;6149354;22;20010;-90
2023/06/29 02:11:04;;;;;;;1.95;0.73;;;;;;;14.92;100.00;100546.16;6252911;22;20009;-91
2023/06/29 02:13:29;;;;;;;1.75;0.95;;;;;;;15.04;100.00;100547.84;6252806;22;20332;-90
2023/06/29 02:15:55;;;;;;;0.98;0.80;;;;;;;14.93;100.00;100550.44;6149620;23;20168;-91
2023/06/29 02:18:20;;;;;;;1.63;0.80;;;;;;;15.09;100.00;100556.13;6150324;22;20528;-90
2023/06/29 02:20:46;;;;;;;1.80;0.80;;;;;;;15.05;100.00;100561.69;6150264;23;20089;-90
2023/06/29 02:23:11;;;;;;;3.25;1.05;;;;;;;15.04;100.00;100565.22;6150273;23;20015;-90
2023/06/29 02:25:36;;;;;;;1.98;1.05;;;;;;;15.02;100.00;100561.91;6151348;23;20073;-90
2023/06/29 02:28:02;;;;;;;4.10;1.40;;;;;;;15.07;100.00;100564.97;6151627;23;20004;-91
2023/06/29 02:30:27;;;;;;;2.70;1.05;;;;;;;15.04;100.00;100563.44;6151828;23;19998;-91
2023/06/29 02:32:53;;;;;;;3.28;0.98;;;;;;;15.14;100.00;100560.97;6254841;22;20484;-90
2023/06/29 02:35:18;;;;;;;3.10;1.30;;;;;;;15.16;100.00;100557.31;6152602;23;20093;-91
2023/06/29 02:37:43;;;;;;;3.90;1.45;;;;;;;15.08;100.00;100566.66;6151491;23;20432;-91
2023/06/29 02:40:09;;;;;;;3.63;1.15;;;;;;;15.10;100.00;100563.00;6254626;22;20240;-91
2023/06/29 02:42:36;;;;;;;1.92;1.10;;;;;;;15.18;100.00;100568.44;6151546;22;20002;-90
2023/06/29 02:45:02;;;;;;;2.28;1.20;;;;;;;15.14;100.00;100566.19;6151720;23;20065;-90
2023/06/29 02:47:28;;;;;;;1.88;1.08;;;;;;;15.10;100.00;100569.97;6151126;23;20024;-90
2023/06/29 02:49:54;;;;;;;3.47;1.27;;;;;;;15.10;100.00;100567.38;6151656;23;20006;-91
2023/06/29 02:52:20;;;;;;;4.68;1.30;;;;;;;15.21;100.00;100567.38;6254556;22;20033;-91
2023/06/29 02:54:45;;;;;;;3.22;1.50;;;;;;;15.25;100.00;100568.00;6254999;22;20420;-89
2023/06/29 02:57:11;;;;;;;1.65;1.35;;;;;;;15.13;100.00;100567.13;6151459;23;20008;-91
2023/06/29 02:59:36;;;;;;;3.33;1.90;;;;;;;15.10;100.00;100573.41;6151397;23;20001;-91
2023/06/29 03:02:02;;;;;;;5.22;1.70;;;;;;;15.12;100.00;100566.31;6151647;23;20051;-90
2023/06/29 03:04:27;;;;;;;3.33;1.42;;;;;;;15.14;100.00;100568.78;6151041;23;20305;-91
2023/06/29 03:06:52;;;;;;;2.35;1.38;;;;;;;15.11;100.00;100580.25;6254658;22;20012;-90
2023/06/29 03:09:19;;;;;;;2.90;1.30;;;;;;;15.11;100.00;100582.03;6253919;22;20227;-90
2023/06/29 03:11:44;;;;;;;3.30;1.38;;;;;;;15.09;100.00;100586.50;6151442;23;20001;-89
2023/06/29 03:14:09;;;;;;;2.08;1.55;;;;;;;15.06;100.00;100589.34;6151674;23;20010;-91
2023/06/29 03:16:35;;;;;;;3.53;1.48;;;;;;;15.01;100.00;100591.44;6151261;23;20001;-90
2023/06/29 03:19:00;;;;;;;1.83;1.27;;;;;;;15.05;100.00;100590.28;6151562;23;20375;-90
2023/06/29 03:21:26;;;;;;;3.78;1.33;;;;;;;15.14;100.00;100586.97;6151171;23;20432;-90
2023/06/29 03:23:51;;;;;;;2.90;1.38;;;;;;;15.18;100.00;100593.63;6253900;22;20331;-90
2023/06/29 03:26:17;;;;;;;2.78;0.80;;;;;;;15.14;100.00;100595.63;6151384;23;20076;-90
2023/06/29 03:28:42;;;;;;;2.65;1.45;;;;;;;15.12;100.00;100587.13;6151042;23;20006;-90
2023/06/29 03:31:07;;;;;;;5.22;1.55;;;;;;;15.10;100.00;100582.97;6151726;23;20101;-90
2023/06/29 03:33:33;;;;;;;1.42;1.17;;;;;;;15.09;100.00;100589.91;6151490;23;20054;-90
2023/06/29 03:35:58;;;;;;;2.47;1.52;;;;;;;15.11;100.00;100595.03;6150784;23;20005;-90
2023/06/29 03:38:23;;;;;;;2.60;1.40;;;;;;;15.04;100.00;100586.00;6253127;22;20009;-91
2023/06/29 03:40:49;;;;;;;3.38;1.73;;;;;;;15.07;100.00;100597.03;6151146;23;20010;-89
2023/06/29 03:43:14;;;;;;;2.92;1.30;;;;;;;15.11;100.00;100595.03;6151288;23;20002;-92
2023/06/29 03:45:39;;;;;;;2.17;1.33;;;;;;;15.03;100.00;100599.97;6151662;23;20009;-91
2023/06/29 03:48:05;;;;;;;1.75;1.17;;;;;;;15.09;100.00;100602.09;6254031;22;20044;-90
2023/06/29 03:50:30;;;;;;;8.18;1.75;;;;;;;15.04;100.00;100596.41;6150772;23;20051;-91
2023/06/29 03:52:56;;;;;;;3.28;1.65;;;;;;;14.96;100.00;100608.19;6151099;23;20002;-90
2023/06/29 03:55:24;;;;;;;3.70;1.60;;;;;;;15.06;100.00;100605.75;6151211;23;20440;-91
2023/06/29 03:57:50;;;;;;;3.22;1.45;;;;;;;14.97;100.00;100606.41;6151561;23;20006;-91
2023/06/29 04:00:15;;;;;;;1.75;1.40;;;;;;;14.89;100.00;100599.19;6150995;23;20013;-90
2023/06/29 04:02:41;;;;;;;2.13;1.25;;;;;;;14.87;100.00;100593.28;6151132;23;20005;-90
2023/06/29 04:05:07;;;;;;;2.42;1.50;;;;;;;14.81;100.00;100585.94;6151112;23;20321;-90
2023/06/29 04:07:33;;;;;;;6.82;1.60;;;;;;;14.79;100.00;100592.19;6253072;22;20036;-91
2023/06/29 04:09:58;;;;;;;2.83;1.60;;;;;;;14.79;100.00;100597.38;6253546;22;20396;-90
2023/06/29 04:12:24;;;;;;;7.03;2.03;;;;;;;14.75;100.00;100599.34;6151047;23;20436;-90
2023/06/29 04:14:49;;;;;;;2.97;1.40;;;;;;;14.67;100.00;100599.09;6151153;23;20455;-90
2023/06/29 04:17:14;;;;;;;3.47;1.27;;;;;;;14.68;100.00;100604.19;6151038;23;20032;-90
2023/06/29 04:19:40;;;;;;;5.35;1.88;;;;;;;14.72;100.00;100597.81;6150233;23;20421;-91
2023/06/29 04:22:05;;;;;;;4.63;1.50;;;;;;;14.63;100.00;100603.69;6150931;23;20078;-89
2023/06/29 04:24:30;;;;;;;4.28;1.77;;;;;;;14.65;100.00;100606.16;6149524;23;19993;-91
2023/06/29 04:26:56;;;;;;;2.65;1.63;;;;;;;14.73;100.00;100593.47;6150769;23;20010;-90
2023/06/29 04:29:21;;;;;;;4.13;1.70;;;;;;;14.64;100.00;100594.94;6150657;23;19998;-90
2023/06/29 04:31:46;;;;;;;2.83;1.42;;;;;;;14.59;100.00;100602.25;6253443;22;20439;-90
2023/06/29 04:34:16;;;;;;;3.95;1.88;;;;;;;14.57;100.00;100598.94;6150911;23;20077;-90
2023/06/29 04:36:45;;;;;;;1.83;1.45;;;;;;;14.47;100.00;100603.09;6150838;23;20001;-90
2023/06/29 04:39:12;;;;;;;2.88;1.92;;;;;;;14.47;100.00;100597.91;6252619;22;20012;-90
2023/06/29 04:41:40;;;;;;;3.92;1.35;;;;;;;14.39;100.00;100595.84;6150393;23;20009;-91
2023/06/29 04:44:06;;;;;;;2.38;1.23;;;;;;;14.31;100.00;100604.19;6253185;22;20010;-88
2023/06/29 04:46:31;;;;;;;1.52;1.10;;;;;;;14.39;100.00;100606.22;6150319;23;20012;-90
2023/06/29 04:48:57;;;;;;;2.08;1.27;;;;;;;14.28;100.00;100608.75;6150486;23;20106;-89
2023/06/29 04:51:22;;;;;;;4.90;1.70;;;;;;;14.25;100.00;100614.16;6150803;23;20001;-89
2023/06/29 04:53:47;;;;;;;3.65;1.08;;;;;;;14.24;100.00;100615.09;6150991;23;20381;-89
2023/06/29 04:56:13;;;;;;;5.97;1.55;;;;;;;14.19;100.00;100617.16;6150923;23;20344;-89
2023/06/29 04:58:38;;;;;;;5.35;1.13;;;;;;;14.13;100.00;100621.84;6151257;22;20076;-90
2023/06/29 05:01:04;;;;;;;2.08;0.90;;;;;;;14.23;100.00;100623.81;6151097;23;20005;-90
2023/06/29 05:03:30;;;;;;;1.42;0.98;;;;;;;14.15;100.00;100621.75;6150517;23;20006;-89
2023/06/29 05:05:55;;;;;;;2.40;1.00;;;;;;;14.17;100.00;100624.22;6149752;23;20440;-89
2023/06/29 05:08:20;;;;;;;6.68;1.10;;;;;;;14.13;100.00;100615.84;6149229;22;20075;-89
2023/06/29 05:10:46;;;;;;;1.92;0.80;;;;;;;14.07;100.00;100617.09;6150015;23;20001;-89
2023/06/29 05:13:11;;;;;;;1.40;0.73;;;;;;;14.01;100.00;100617.50;6150487;23;20040;-89
2023/06/29 05:15:37;;;;;;;2.20;1.02;;;;;;;13.96;100.00;100614.41;6252964;22;20059;-90
2023/06/29 05:18:02;;;;;;;3.55;1.23;;;;;;;14.03;100.00;100617.41;6149807;23;20328;-90
2023/06/29 05:20:28;;;;;;;1.63;1.23;;;;;;;14.04;100.00;100621.66;6150234;23;20010;-92
2023/06/29 05:22:53;;;;;;;3.83;1.27;;;;;;;14.05;100.00;100626.75;6150168;23;20079;-90
2023/06/29 05:25:18;;;;;;;1.65;0.68;;;;;;;14.07;100.00;100627.50;6150563;23;20424;-91
2023/06/29 05:27:44;;;;;;;2.85;1.15;;;;;;;14.07;100.00;100624.91;6149818;23;20002;-90
2023/06/29 05:30:10;;;;;;;6.18;1.15;;;;;;;14.13;100.00;100627.06;6150061;23;20483;-91
2023/06/29 05:32:36;;;;;;;4.72;0.95;;;;;;;14.18;100.00;100628.50;6149674;23;20031;-91
2023/06/29 05:35:01;;;;;;;4.22;1.50;;;;;;;14.27;100.00;100635.66;6150136;23;20101;-90
2023/06/29 05:37:29;;;;;;;1.25;0.85;;;;;;;14.33;100.00;100632.63;6150330;23;20491;-91
2023/06/29 05:39:56;;;;;;;2.38;1.10;;;;;;;14.33;100.00;100632.63;6149981;23;20088;-91
2023/06/29 05:42:22;;;;;;;2.75;0.90;;;;;;;14.42;100.00;100639.78;6149616;23;20374;-93
2023/06/29 05:44:47;;;;;;;2.58;1.15;;;;;;;14.63;100.00;100631.41;6150801;23;20059;-94
2023/06/29 05:47:13;;;;;;;4.90;1.15;;;;;;;14.69;100.00;100636.19;6253272;22;20032;-90
2023/06/29 05:49:38;;;;;;;1.92;0.88;;;;;;;14.71;100.00;100629.94;6150234;23;20032;-92
2023/06/29 05:52:03;;;;;;;1.63;0.90;;;;;;;14.70;100.00;100635.25;6152063;23;20012;-93
2023/06/29 05:54:29;;;;;;;1.33;0.80;;;;;;;14.83;100.00;100641.22;6150774;23;20336;-92
2023/06/29 05:56:54;;;;;;;2.42;1.02;;;;;;;14.71;99.06;100637.75;6252855;22;20364;-93
2023/06/29 05:59:19;;;;;;;1.48;0.77;;;;;;;14.69;98.17;100641.38;6150803;23;20001;-92
2023/06/29 06:01:45;;;;;;;2.20;0.80;;;;;;;14.71;97.35;100642.94;6152508;23;20001;-91
2023/06/29 06:04:10;;;;;;;1.70;1.13;;;;;;;14.67;97.17;100651.06;6255505;22;20063;-92
2023/06/29 06:06:36;;;;;;;1.77;0.90;;;;;;;14.78;94.75;100645.94;6152159;23;20010;-91
2023/06/29 06:09:02;;;;;;;3.75;1.25;;;;;;;14.75;95.12;100641.78;6151630;22;20725;-93
2023/06/29 06:11:28;;;;;;;5.38;1.00;;;;;;;15.02;93.46;100647.69;6255160;22;20009;-93
2023/06/29 06:13:53;;;;;;;1.60;0.65;;;;;;;17.27;81.00;100643.28;6152555;23;20002;-92
2023/06/29 06:16:20;;;;;;;1.70;0.50;;;;;;;19.83;64.92;100646.22;6152107;23;20006;-94
2023/06/29 06:18:45;;;;;;;1.40;0.50;;;;;;;21.29;58.74;100649.75;6151274;23;19998;-93
2023/06/29 06:21:10;;;;;;;3.53;0.80;;;;;;;22.61;53.89;100647.66;6254844;22;20013;-91
2023/06/29 06:23:36;;;;;;;0.68;0.47;;;;;;;24.16;49.88;100661.69;6151204;23;20021;-93
2023/06/29 06:26:02;;;;;;;2.70;0.60;;;;;;;23.83;49.20;100667.09;6151891;23;20002;-93
2023/06/29 06:28:27;;;;;;;1.40;0.65;;;;;;;24.70;47.27;100672.34;6151762;23;20006;-93
2023/06/29 06:30:53;;;;;;;0.57;0.40;;;;;;;24.10;48.06;100676.38;6151777;23;20392;-93
2023/06/29 06:33:18;;;;;;;2.67;0.43;;;;;;;22.67;50.50;100676.94;6151529;23;20005;-93
2023/06/29 06:35:44;;;;;;;3.17;1.20;;;;;;;21.99;51.85;100662.84;6151594;23;20058;-93
2023/06/29 06:38:10;;;;;;;3.40;0.57;;;;;;;22.59;50.33;100668.03;6150935;23;20002;-92
2023/06/29 06:40:35;;;;;;;2.42;0.57;;;;;;;23.65;48.68;100671.69;6151615;23;20013;-93
2023/06/29 06:43:00;;;;;;;2.50;0.60;;;;;;;23.99;47.28;100674.09;6150836;23;20436;-93
2023/06/29 06:45:26;;;;;;;1.85;0.50;;;;;;;24.43;46.86;100672.78;6150863;23;20009;-92
2023/06/29 06:47:51;;;;;;;2.60;0.52;;;;;;;24.70;45.52;100671.50;6151381;23;20006;-93
2023/06/29 06:50:17;;;;;;;5.82;0.57;;;;;;;24.69;45.16;100668.03;6151231;23;20416;-93
2023/06/29 06:52:42;;;;;;;2.22;0.68;;;;;;;23.83;46.52;100676.81;6254264;22;20002;-92
2023/06/29 06:55:08;;;;;;;4.68;0.45;;;;;;;25.29;44.00;100676.19;6254781;22;20002;-93
2023/06/29 06:57:33;;;;;;;3.58;0.68;;;;;;;25.59;43.98;100682.38;6151354;23;20014;-95
2023/06/29 06:59:59;;;;;;;2.03;0.52;;;;;;;26.27;43.01;100675.19;6254539;22;20010;-92
2023/06/29 07:02:24;;;;;;;2.13;0.50;;;;;;;26.36;42.90;100678.53;6151438;23;20001;-92
2023/06/29 07:04:50;;;;;;;4.00;0.50;;;;;;;25.22;44.32;100677.94;6254819;22;20092;-92
2023/06/29 07:07:16;;;;;;;2.03;0.60;;;;;;;25.40;44.65;100683.69;6253840;22;20511;-94
2023/06/29 07:09:41;;;;;;;4.28;0.60;;;;;;;25.26;44.17;100685.28;6254262;22;20049;-94
2023/06/29 07:12:09;;;;;;;6.45;0.70;;;;;;;24.69;43.99;100694.44;6151961;23;20371;-93
2023/06/29 07:14:34;;;;;;;1.50;0.52;;;;;;;24.37;44.80;100694.59;6151693;23;19998;-95
2023/06/29 07:17:00;;;;;;;6.38;0.93;;;;;;;24.61;44.14;100681.28;6252937;22;20039;-93
2023/06/29 07:19:25;;;;;;;2.10;0.75;;;;;;;24.23;45.46;100680.28;6150599;23;19998;-93
2023/06/29 07:21:51;;;;;;;4.53;0.60;;;;;;;23.58;47.01;100683.91;6151240;23;20005;-92
2023/06/29 07:24:16;;;;;;;3.78;0.80;;;;;;;24.15;45.47;100678.50;6151511;23;20012;-93
2023/06/29 07:26:41;;;;;;;1.05;0.50;;;;;;;24.24;45.43;100688.03;6151389;23;20012;-94
2023/06/29 07:29:07;;;;;;;1.00;0.32;;;;;;;24.10;46.04;100691.41;6151194;23;20037;-93
2023/06/29 07:31:34;;;;;;;1.15;0.30;;;;;;;24.27;45.38;100682.41;6151463;23;20048;-93
2023/06/29 07:33:59;;;;;;;3.42;0.70;;;;;;;24.22;45.67;100684.75;6151002;23;20035;-93
2023/06/29 07:36:26;;;;;;;0.82;0.30;;;;;;;24.08;46.74;100696.81;6253208;22;20035;-94
2023/06/29 07:38:51;;;;;;;0.88;0.28;;;;;;;24.29;46.21;100696.25;6254193;22;20119;-93
2023/06/29 07:41:18;;;;;;;3.60;0.40;;;;;;;24.49;46.05;100701.16;6150668;23;20430;-93
2023/06/29 07:43:48;;;;;;;2.88;0.50;;;;;;;24.05;46.67;100699.00;6252685;22;20013;-93
2023/06/29 07:46:14;;;;;;;3.30;0.50;;;;;;;24.69;45.17;100699.72;6150474;23;20014;-93
2023/06/29 07:48:39;;;;;;;1.83;0.40;;;;;;;24.80;44.90;100708.22;6253281;22;20340;-93
2023/06/29 07:51:05;;;;;;;2.58;0.43;;;;;;;24.31;46.10;100711.91;6150615;23;20008;-94
2023/06/29 07:53:31;;;;;;;2.70;0.50;;;;;;;24.46;44.87;100707.59;6253036;22;20013;-92
2023/06/29 07:56:00;;;;;;;1.58;0.50;;;;;;;24.12;45.82;100713.16;6252878;22;20002;-94
2023/06/29 07:58:29;;;;;;;1.33;0.50;;;;;;;24.45;45.70;100710.38;6252897;22;20089;-94
2023/06/29 08:00:55;;;;;;;3.38;0.73;;;;;;;24.53;44.40;100708.56;6252507;22;20020;-94
2023/06/29 08:03:21;;;;;;;1.33;0.50;;;;;;;24.92;43.98;100704.19;6252435;22;20017;-94
2023/06/29 08:05:46;;;;;;;3.42;0.47;;;;;;;25.40;44.17;100700.38;6149982;23;20460;-94
2023/06/29 08:08:12;;;;;;;2.08;0.82;;;;;;;25.22;43.41;100702.53;6252627;22;20098;-94
2023/06/29 08:10:38;;;;;;;3.22;0.60;;;;;;;25.29;42.85;100697.31;6252788;22;20146;-93
2023/06/29 08:13:03;;;;;;;3.35;0.45;;;;;;;25.87;43.25;100701.09;6255391;22;20344;-93
2023/06/29 08:15:28;;;;;;;2.65;0.90;;;;;;;26.24;42.37;100699.38;6253753;22;20397;-93
2023/06/29 08:17:54;;;;;;;4.03;0.80;;;;;;;25.32;43.59;100708.38;6150591;23;20002;-93
2023/06/29 08:20:19;;;;;;;5.07;0.73;;;;;;;24.87;43.42;100703.88;6253189;22;20001;-94
2023/06/29 08:22:45;;;;;;;3.42;0.40;;;;;;;24.83;43.34;100716.63;6151021;23;20081;-92
2023/06/29 08:25:11;;;;;;;3.30;0.47;;;;;;;24.73;43.57;100714.22;6254420;22;19997;-94
2023/06/29 08:27:36;;;;;;;3.03;0.43;;;;;;;24.38;44.25;100719.97;6253691;22;20013;-93
2023/06/29 08:30:02;;;;;;;3.00;0.50;;;;;;;25.37;43.64;100713.94;6151297;23;20002;-93
2023/06/29 08:32:28;;;;;;;2.60;0.32;;;;;;;25.76;42.75;100709.47;6151631;23;20028;-94
2023/06/29 08:34:53;;;;;;;5.45;0.63;;;;;;;25.75;41.79;100718.38;6253830;22;20022;-92
2023/06/29 08:37:19;;;;;;;4.53;0.43;;;;;;;25.34;42.81;100706.38;6151155;23;20006;-93
2023/06/29 08:39:45;;;;;;;2.20;0.47;;;;;;;26.01;41.47;100710.84;6253474;22;20001;-93
2023/06/29 08:42:10;;;;;;;3.15;0.50;;;;;;;26.65;40.61;100714.72;6151166;23;20009;-93
2023/06/29 08:44:36;;;;;;;2.00;0.43;;;;;;;26.58;40.41;100714.69;6151388;23;19997;-93
2023/06/29 08:47:02;;;;;;;3.25;0.50;;;;;;;27.00;40.87;100718.38;6253513;22;20006;-93
2023/06/29 08:49:27;;;;;;;3.95;0.52;;;;;;;27.22;40.04;100721.88;6150501;23;20029;-93
2023/06/29 08:51:58;;;;;;;2.80;0.45;;;;;;;26.84;39.29;100724.72;6151096;23;20004;-93
2023/06/29 08:54:28;;;;;;;4.38;0.70;;;;;;;27.77;38.65;100719.41;6150867;23;20013;-94
2023/06/29 08:56:53;;;;;;;6.25;0.55;;;;;;;27.55;38.81;100710.69;6150951;23;20005;-93
2023/06/29 08:59:20;;;;;;;2.33;0.43;;;;;;;28.08;40.27;100726.97;6150671;23;20005;-93
2023/06/29 09:01:45;;;;;;;1.58;0.30;;;;;;;28.43;37.15;100724.25;6150228;23;20009;-94
2023/06/29 09:04:11;;;;;;;2.75;0.40;;;;;;;28.04;38.02;100720.41;6150671;23;20505;-93
2023/06/29 09:06:37;;;;;;;1.08;0.45;;;;;;;26.47;38.90;100723.88;6151180;23;20036;-93
2023/06/29 09:09:03;;;;;;;1.80;0.28;;;;;;;26.79;38.97;100721.81;6150849;22;20225;-93
2023/06/29 09:11:33;;;;;;;2.28;0.57;;;;;;;26.09;40.10;100727.66;6150507;23;19997;-93
2023/06/29 09:14:04;;;;;;;1.63;0.40;;;;;;;26.43;39.60;100727.06;6150838;23;20421;-94
2023/06/29 09:16:29;;;;;;;2.90;0.47;;;;;;;27.71;37.57;100728.97;6150554;23;20030;-94
2023/06/29 09:18:55;;;;;;;2.10;0.47;;;;;;;27.65;38.17;100715.66;6150516;23;20055;-94
2023/06/29 09:21:23;;;;;;;2.33;0.40;;;;;;;26.98;38.55;100719.56;6253265;22;20012;-93
2023/06/29 09:23:49;;;;;;;2.53;0.40;;;;;;;26.54;39.60;100717.88;6253005;22;19998;-94
2023/06/29 09:26:17;;;;;;;1.77;0.70;;;;;;;25.51;42.36;100725.56;6253369;22;20077;-93
2023/06/29 09:28:46;;;;;;;4.15;0.70;;;;;;;25.71;41.80;100725.06;6150744;23;20039;-93
2023/06/29 09:31:12;;;;;;;1.13;0.30;;;;;;;26.08;41.98;100721.53;6253394;22;20006;-93
2023/06/29 09:33:38;;;;;;;1.15;0.40;;;;;;;26.23;41.11;100725.00;6150810;23;20074;-93
2023/06/29 09:36:07;;;;;;;3.20;0.40;;;;;;;26.16;41.41;100724.09;6255454;22;20005;-94
2023/06/29 09:38:33;;;;;;;2.05;0.50;;;;;;;25.55;42.69;100724.19;6255737;22;20022;-93
2023/06/29 09:40:59;;;;;;;2.28;0.40;;;;;;;25.51;42.87;100728.22;6151742;23;20009;-94
2023/06/29 09:43:29;;;;;;;3.30;0.43;;;;;;;25.20;43.29;100721.19;6151922;23;20182;-93
2023/06/29 09:46:07;;;;;;;2.28;0.52;;;;;;;25.15;43.08;100725.34;6151637;23;20363;-93
2023/06/29 09:48:33;;;;;;;1.58;0.82;;;;;;;25.74;42.68;100727.31;6255333;22;20031;-94
2023/06/29 09:50:59;;;;;;;1.15;0.25;;;;;;;25.55;42.65;100729.47;6255690;22;20006;-94
2023/06/29 09:53:29;;;;;;;3.03;0.40;;;;;;;26.60;41.46;100727.72;6254912;22;20432;-93
2023/06/29 09:55:57;;;;;;;4.53;0.55;;;;;;;26.26;40.75;100715.88;6255096;22;20424;-94
2023/06/29 09:58:23;;;;;;;3.50;0.50;;;;;;;25.87;41.78;100716.97;6152018;23;20058;-94
2023/06/29 10:00:49;;;;;;;1.05;0.40;;;;;;;26.13;41.56;100713.88;6255001;22;20005;-92
2023/06/29 10:03:15;;;;;;;2.38;0.45;;;;;;;26.48;41.79;100722.88;6151889;23;20006;-94
2023/06/29 10:05:40;;;;;;;3.30;0.40;;;;;;;26.09;40.99;100720.53;6152038;23;20001;-93
2023/06/29 10:08:08;;;;;;;2.33;0.50;;;;;;;25.90;41.18;100718.44;6254971;22;20013;-93
2023/06/29 10:10:36;;;;;;;1.45;0.75;;;;;;;26.63;41.91;100714.13;6152447;23;20032;-95
2023/06/29 10:13:04;;;;;;;6.82;0.45;;;;;;;26.63;41.19;100714.13;6151807;23;20002;-92
2023/06/29 10:15:31;;;;;;;1.90;0.68;;;;;;;25.95;41.03;100727.47;6151769;23;20001;-93
2023/06/29 10:18:07;;;;;;;2.80;0.45;;;;;;;26.32;41.04;100714.31;6256067;22;20144;-94
2023/06/29 10:20:37;;;;;;;0.63;0.30;;;;;;;26.00;39.38;100722.47;6151991;23;20001;-93
2023/06/29 10:23:05;;;;;;;1.63;0.50;;;;;;;26.44;40.67;100716.31;6152055;23;20005;-93
2023/06/29 10:25:35;;;;;;;1.85;0.47;;;;;;;27.43;38.88;100713.03;6152344;23;20021;-93
2023/06/29 10:28:02;;;;;;;1.20;0.47;;;;;;;28.01;37.64;100714.69;6152602;23;20012;-94
2023/06/29 10:30:27;;;;;;;1.65;0.30;;;;;;;28.77;36.71;100711.94;6152437;23;20051;-94
2023/06/29 10:32:53;;;;;;;1.25;0.30;;;;;;;28.64;35.50;100714.56;6281014;22;20006;-93
2023/06/29 10:35:23;;;;;;;2.75;0.30;;;;;;;27.87;36.21;100713.78;6152290;23;20425;-95
2023/06/29 10:37:50;;;;;;;2.10;0.40;;;;;;;27.51;37.21;100717.41;6255371;22;20409;-94
2023/06/29 10:40:17;;;;;;;2.83;0.50;;;;;;;27.12;38.61;100710.75;6255818;22;20006;-94
2023/06/29 10:42:43;;;;;;;0.82;0.30;;;;;;;27.12;37.65;100705.44;6151886;23;20343;-93
2023/06/29 10:45:21;;;;;;;3.97;0.30;;;;;;;26.92;38.39;100721.13;6255695;22;20440;-94
2023/06/29 10:47:55;;;;;;;1.00;0.30;;;;;;;27.14;37.97;100719.31;6255078;22;20009;-95
2023/06/29 10:50:24;;;;;;;1.20;0.60;;;;;;;27.32;36.71;100722.34;6255381;22;20009;-94
2023/06/29 10:52:50;;;;;;;1.05;0.40;;;;;;;28.02;37.32;100717.16;6255408;22;20013;-93
2023/06/29 10:55:22;;;;;;;1.58;0.25;;;;;;;28.68;35.60;100710.47;6152060;23;20001;-93
2023/06/29 10:57:50;;;;;;;4.70;0.60;;;;;;;28.82;35.13;100714.81;6152147;23;20005;-94
2023/06/29 11:00:16;;;;;;;2.13;0.55;;;;;;;28.91;35.64;100713.59;6151498;23;20009;-94
2023/06/29 11:02:42;;;;;;;4.60;0.57;;;;;;;28.41;35.15;100712.19;6254905;22;20084;-94
2023/06/29 11:05:15;;;;;;;1.67;0.60;;;;;;;27.81;37.47;100712.72;6151835;23;20004;-93
2023/06/29 11:07:41;;;;;;;1.15;0.35;;;;;;;27.45;36.81;100720.81;6254437;22;20017;-95
2023/06/29 11:10:07;;;;;;;2.10;0.40;;;;;;;26.95;38.00;100706.72;6256148;22;20006;-94
2023/06/29 11:12:32;;;;;;;1.17;0.28;;;;;;;26.32;38.49;100709.84;6254954;22;20029;-94
2023/06/29 11:14:58;;;;;;;1.48;0.40;;;;;;;26.35;39.07;100712.13;6152517;23;20040;-93
2023/06/29 11:17:23;;;;;;;1.20;0.50;;;;;;;26.21;39.17;100708.50;6253810;22;20002;-92